Terminal Aerodrome Forecast
Issued by NWS

Home | Current Version | Previous Version | Graphics & Text | Print | Product List | Glossary On
Versions: 1 2 3 4 5 6 7 8 9 10 11 12 13 14 15 16 17 18 19 20 21
000
FTUS42 KMHX 182301 AAA
TAFPGV
TAF AMD
KPGV 182301Z 1823/1918 VRB05KT P6SM VCTS SCT035CB BKN050
     FM190300 VRB03KT P6SM SCT050 BKN100
     FM191500 08011KT P6SM VCSH SCT020 BKN050
      AMD LTD TO CLD VIS AND WIND=

USA.gov is the U.S. government's official web portal to all federal, state and local government web resources and services.